Time;durP1;ratioP1;P1;durP2;ratioP2;P2;SDS_P1;SDS_P2;PMS_P1;PMS_P2;Temp;Humidity;BMP_temperature;BMP_pressure;BME280_temperature;BME280_humidity;BME280_pressure;Samples;Min_cycle;Max_cycle;Signal;HPM_P1;HPM_P2
2023/06/14 00:00:40;;;;;;;;;21.67;21.67;;;;;25.42;38.55;100348.75;6218700;22;45385;-86
2023/06/14 00:03:09;;;;;;;;;17.33;17.33;;;;;25.39;38.47;100348.03;6223394;22;45397;-84
2023/06/14 00:05:40;;;;;;;;;20.00;18.33;;;;;25.38;38.62;100351.72;6224243;22;46480;-84
2023/06/14 00:08:09;;;;;;;;;22.33;18.67;;;;;25.33;38.54;100352.88;6249210;22;45266;-84
2023/06/14 00:10:36;;;;;;;;;14.67;13.67;;;;;25.32;38.32;100344.78;6224793;22;45302;-85
2023/06/14 00:13:03;;;;;;;;;22.67;21.33;;;;;25.27;38.72;100345.03;6248970;22;45371;-85
2023/06/14 00:15:30;;;;;;;;;17.67;17.67;;;;;25.21;38.35;100345.34;6222772;22;47300;-85
2023/06/14 00:17:56;;;;;;;;;22.33;20.33;;;;;25.18;38.82;100347.31;6226511;22;44719;-84
2023/06/14 00:20:57;;;;;;;;;22.67;19.67;;;;;25.23;38.72;100351.59;6224789;22;45410;-85
2023/06/14 00:23:22;;;;;;;;;18.67;18.00;;;;;25.08;39.04;100344.19;6247439;22;45374;-84
2023/06/14 00:25:47;;;;;;;;;23.33;20.67;;;;;25.05;39.07;100355.25;6224648;22;45323;-84
2023/06/14 00:28:13;;;;;;;;;21.00;18.67;;;;;24.99;39.57;100358.31;6220392;22;45473;-85
2023/06/14 00:30:39;;;;;;;;;22.33;19.00;;;;;24.94;39.29;100359.44;6222684;22;45534;-85
2023/06/14 00:33:05;;;;;;;;;18.00;18.00;;;;;24.89;39.65;100350.59;6221594;22;45429;-87
2023/06/14 00:35:31;;;;;;;;;17.33;16.33;;;;;24.85;39.58;100349.00;6219669;22;47041;-86
2023/06/14 00:37:57;;;;;;;;;17.67;17.00;;;;;24.77;39.63;100344.94;6222207;22;45330;-86
2023/06/14 00:40:22;;;;;;;;;16.33;15.67;;;;;24.78;40.05;100363.88;6220737;22;45323;-85
2023/06/14 00:42:48;;;;;;;;;21.00;18.33;;;;;24.75;39.83;100359.47;6245554;22;45200;-86
2023/06/14 00:45:15;;;;;;;;;23.67;20.33;;;;;24.72;39.86;100362.38;6220719;22;45298;-86
2023/06/14 00:47:42;;;;;;;;;21.33;21.33;;;;;24.74;40.62;100359.53;6218612;22;45342;-85
2023/06/14 00:50:09;;;;;;;;;25.33;25.33;;;;;24.66;40.69;100356.34;6218392;22;44911;-85
2023/06/14 00:52:34;;;;;;;;;24.00;22.00;;;;;24.59;40.62;100363.06;6218638;22;45312;-85
2023/06/14 00:55:00;;;;;;;;;21.67;20.67;;;;;24.53;40.92;100365.09;6220655;22;48250;-84
2023/06/14 00:57:26;;;;;;;;;18.67;17.33;;;;;24.49;41.67;100362.59;6220329;22;45334;-85
2023/06/14 00:59:52;;;;;;;;;19.00;19.00;;;;;24.44;40.87;100365.56;6222122;22;45409;-85
2023/06/14 01:02:18;;;;;;;;;21.33;21.00;;;;;24.39;41.27;100359.44;6223708;22;45280;-85
2023/06/14 01:04:47;;;;;;;;;23.33;21.67;;;;;24.46;42.12;100377.22;6221880;22;48348;-85
2023/06/14 01:07:28;;;;;;;;;29.67;27.67;;;;;24.43;42.74;100368.34;6223781;22;45454;-85
2023/06/14 01:10:15;;;;;;;;;28.00;28.00;;;;;24.36;42.83;100373.22;6227056;22;45294;-85
2023/06/14 01:12:55;;;;;;;;;25.67;25.33;;;;;24.23;43.65;100363.88;6248359;22;45395;-85
2023/06/14 01:15:21;;;;;;;;;26.00;25.33;;;;;24.11;44.00;100359.91;6224053;22;45358;-86
2023/06/14 01:17:51;;;;;;;;;24.00;23.67;;;;;24.15;43.78;100364.25;6223767;22;45642;-85
2023/06/14 01:20:20;;;;;;;;;23.33;22.67;;;;;24.07;43.97;100367.31;6224274;22;45371;-85
2023/06/14 01:26:07;;;;;;;;;27.33;27.33;;;;;23.94;44.49;100368.88;6225713;22;45768;-85
2023/06/14 01:28:35;;;;;;;;;25.00;25.00;;;;;23.90;45.31;100364.56;6221560;22;44765;-85
2023/06/14 01:31:05;;;;;;;;;25.33;23.00;;;;;23.82;45.41;100364.91;6217927;22;45378;-85
2023/06/14 01:33:33;;;;;;;;;24.00;23.00;;;;;23.71;45.57;100365.38;6244510;22;45473;-85
2023/06/14 01:36:02;;;;;;;;;28.67;27.00;;;;;23.68;45.69;100370.94;6216935;22;45358;-84
2023/06/14 01:38:30;;;;;;;;;25.67;25.00;;;;;23.57;45.91;100359.69;6221286;22;44797;-86
2023/06/14 01:40:58;;;;;;;;;28.67;28.00;;;;;23.60;45.93;100366.81;6218916;22;45422;-86
2023/06/14 01:43:25;;;;;;;;;26.33;26.33;;;;;23.53;46.10;100356.25;6244736;22;45692;-85
2023/06/14 01:45:53;;;;;;;;;29.67;27.33;;;;;23.46;46.48;100352.03;6221624;22;45337;-85
2023/06/14 01:48:19;;;;;;;;;28.67;27.33;;;;;23.46;46.31;100362.03;6221341;22;45295;-85
2023/06/14 01:50:45;;;;;;;;;25.67;24.00;;;;;23.34;47.16;100358.91;6221918;22;45406;-85
2023/06/14 01:53:10;;;;;;;;;24.67;24.67;;;;;23.36;47.05;100364.28;6223071;22;45270;-85
2023/06/14 01:55:43;;;;;;;;;28.00;28.00;;;;;23.36;47.03;100365.13;6221595;22;46853;-85
2023/06/14 01:58:09;;;;;;;;;32.33;29.00;;;;;23.27;47.32;100362.84;6222330;22;45294;-85
2023/06/14 02:00:34;;;;;;;;;29.33;29.33;;;;;23.27;47.87;100356.53;6217060;22;45503;-85
2023/06/14 02:03:00;;;;;;;;;27.00;27.00;;;;;23.17;47.38;100351.53;6221307;22;45311;-85
2023/06/14 02:05:26;;;;;;;;;27.67;26.67;;;;;23.19;47.53;100375.88;6223234;22;46362;-85
2023/06/14 02:07:55;;;;;;;;;26.33;26.33;;;;;23.16;47.87;100367.88;6222523;22;45624;-86
2023/06/14 02:10:21;;;;;;;;;22.33;22.33;;;;;23.07;47.86;100373.72;6222153;22;45464;-86
2023/06/14 02:12:46;;;;;;;;;27.00;23.67;;;;;23.05;47.94;100368.34;6220957;22;45629;-86
2023/06/14 02:15:18;;;;;;;;;23.33;23.33;;;;;23.00;47.94;100362.19;6224126;22;46240;-85
2023/06/14 02:17:44;;;;;;;;;24.67;24.67;;;;;23.04;48.45;100366.56;6224977;22;45419;-85
2023/06/14 02:20:57;;;;;;;;;23.67;21.67;;;;;23.10;48.37;100370.84;6221900;22;45279;-85
2023/06/14 02:23:22;;;;;;;;;27.00;24.00;;;;;23.00;48.17;100372.16;6248532;22;45409;-84
2023/06/14 02:25:48;;;;;;;;;26.33;26.33;;;;;22.94;48.03;100379.59;6222836;22;47067;-85
2023/06/14 02:28:13;;;;;;;;;24.33;23.00;;;;;22.81;48.57;100356.69;6222487;22;44811;-85
2023/06/14 02:30:41;;;;;;;;;29.67;27.33;;;;;22.86;48.43;100370.91;6223091;22;44831;-85
2023/06/14 02:33:07;;;;;;;;;26.00;24.33;;;;;22.84;48.93;100372.81;6247465;22;45466;-85
2023/06/14 02:35:32;;;;;;;;;26.00;26.00;;;;;22.75;49.01;100367.81;6221351;22;46966;-86
2023/06/14 02:37:58;;;;;;;;;25.00;25.00;;;;;22.75;49.11;100363.25;6220535;22;45456;-86
2023/06/14 02:40:23;;;;;;;;;24.67;24.67;;;;;22.66;49.30;100360.94;6246695;22;45383;-86
2023/06/14 02:42:49;;;;;;;;;25.67;25.00;;;;;22.64;48.70;100367.38;6223555;22;45287;-86
2023/06/14 02:45:15;;;;;;;;;22.00;22.00;;;;;22.71;48.87;100369.75;6223990;22;45252;-85
2023/06/14 02:47:41;;;;;;;;;27.00;27.00;;;;;22.57;48.89;100370.31;6246417;22;45449;-86
2023/06/14 02:50:07;;;;;;;;;24.00;23.33;;;;;22.65;49.39;100371.84;6221330;22;45368;-85
2023/06/14 02:52:33;;;;;;;;;21.00;19.33;;;;;22.62;49.17;100386.38;6220853;22;45329;-85
2023/06/14 02:54:59;;;;;;;;;30.00;28.67;;;;;22.60;49.20;100377.44;6223760;22;46196;-85
2023/06/14 02:57:25;;;;;;;;;24.33;24.00;;;;;22.66;49.13;100389.88;6247137;22;45337;-85
2023/06/14 02:59:53;;;;;;;;;24.33;24.33;;;;;22.57;49.48;100380.28;6222996;22;45410;-84
2023/06/14 03:02:19;;;;;;;;;24.67;23.33;;;;;22.48;50.05;100377.94;6222884;22;45330;-85
2023/06/14 03:04:47;;;;;;;;;27.67;25.67;;;;;22.44;50.02;100379.94;6222884;22;45273;-85
2023/06/14 03:07:13;;;;;;;;;30.33;27.67;;;;;22.42;50.10;100387.25;6246359;22;45512;-86
2023/06/14 03:09:39;;;;;;;;;25.67;25.33;;;;;22.42;50.16;100398.06;6222285;22;45452;-85
2023/06/14 03:12:09;;;;;;;;;28.33;24.67;;;;;22.39;50.80;100387.34;6248640;22;45474;-85
2023/06/14 03:14:35;;;;;;;;;24.33;24.33;;;;;22.33;50.53;100396.59;6223522;22;46281;-85
2023/06/14 03:17:01;;;;;;;;;27.00;24.33;;;;;22.30;50.85;100393.13;6222945;22;44819;-85
2023/06/14 03:19:26;;;;;;;;;26.00;23.33;;;;;22.28;50.94;100395.00;6222100;22;45375;-85
2023/06/14 03:25:15;;;;;;;;;28.33;26.67;;;;;22.24;50.69;100404.22;6223925;22;45312;-85
2023/06/14 03:27:40;;;;;;;;;28.33;26.33;;;;;22.16;51.03;100407.22;6222572;22;45954;-85
2023/06/14 03:30:06;;;;;;;;;24.33;23.00;;;;;22.14;50.89;100414.50;6223586;22;45321;-85
2023/06/14 03:32:33;;;;;;;;;25.67;25.67;;;;;22.02;51.07;100405.03;6223495;22;45363;-83
2023/06/14 03:34:58;;;;;;;;;29.00;26.00;;;;;22.05;51.07;100413.03;6222798;22;47087;-84
2023/06/14 03:37:30;;;;;;;;;28.33;25.00;;;;;22.06;51.45;100425.63;6223964;22;45441;-85
2023/06/14 03:39:58;;;;;;;;;27.67;25.67;;;;;22.03;51.37;100420.31;6224448;22;45353;-85
2023/06/14 03:42:23;;;;;;;;;23.33;23.00;;;;;22.04;51.83;100422.09;6224815;22;45373;-85
2023/06/14 03:44:49;;;;;;;;;25.67;25.67;;;;;22.01;51.71;100416.78;6223412;22;44834;-86
2023/06/14 03:47:14;;;;;;;;;25.33;25.33;;;;;21.99;51.41;100426.81;6247920;22;44763;-84
2023/06/14 03:49:40;;;;;;;;;27.00;27.00;;;;;21.97;51.96;100424.16;6224690;22;45765;-85
2023/06/14 03:52:06;;;;;;;;;27.67;26.67;;;;;21.98;51.89;100430.47;6249232;22;45682;-85
2023/06/14 03:54:32;;;;;;;;;26.00;26.00;;;;;21.93;51.94;100437.88;6223817;22;47166;-85
2023/06/14 03:56:58;;;;;;;;;27.67;26.33;;;;;21.94;52.26;100436.94;6223145;22;45313;-86
2023/06/14 03:59:24;;;;;;;;;30.00;29.00;;;;;21.95;52.14;100435.97;6225314;22;45263;-85
2023/06/14 04:01:49;;;;;;;;;25.67;24.33;;;;;21.91;52.10;100431.63;6222294;22;45322;-85
2023/06/14 04:04:18;;;;;;;;;29.00;28.00;;;;;21.94;52.20;100434.25;6223550;22;46632;-85
2023/06/14 04:10:26;;;;;;;;;25.33;25.00;;;;;21.93;52.22;100432.44;6226487;22;44791;-86
2023/06/14 04:12:52;;;;;;;;;27.33;26.00;;;;;21.84;52.00;100428.28;6250433;22;45243;-85
2023/06/14 04:15:18;;;;;;;;;26.00;26.00;;;;;21.77;51.99;100421.31;6225952;22;44955;-86
2023/06/14 04:17:43;;;;;;;;;27.00;25.33;;;;;21.80;52.25;100431.16;6226366;22;45358;-85
2023/06/14 04:20:10;;;;;;;;;27.33;25.33;;;;;21.94;52.28;100456.78;6224770;22;45283;-84
2023/06/14 04:22:36;;;;;;;;;23.33;22.33;;;;;21.85;52.20;100437.28;6225257;22;45290;-85
2023/06/14 04:25:02;;;;;;;;;27.33;26.00;;;;;21.92;51.77;100439.69;6224585;22;47073;-85
2023/06/14 04:27:30;;;;;;;;;22.33;18.33;;;;;22.03;52.13;100455.53;6223998;22;44692;-85
2023/06/14 04:29:56;;;;;;;;;23.00;22.33;;;;;21.97;51.81;100444.94;6224425;22;45418;-86
2023/06/14 04:32:33;;;;;;;;;24.33;22.33;;;;;22.09;51.45;100439.03;6226266;22;45380;-86
2023/06/14 04:35:01;;;;;;;;;30.67;28.00;;;;;22.17;51.74;100447.75;6223241;22;47216;-84
2023/06/14 04:37:28;;;;;;;;;30.67;27.33;;;;;22.28;51.88;100469.06;6247939;22;45322;-85
2023/06/14 04:39:55;;;;;;;;;28.00;25.00;;;;;22.36;51.45;100468.78;6221693;22;45341;-84
2023/06/14 04:42:44;;;;;;;;;27.00;24.67;;;;;22.43;51.07;100459.44;6225146;22;45411;-84
2023/06/14 04:45:10;;;;;;;;;22.67;22.67;;;;;22.55;51.34;100475.22;6247213;22;46866;-85
2023/06/14 04:47:37;;;;;;;;;26.33;25.33;;;;;22.56;51.20;100468.88;6221809;22;45382;-85
2023/06/14 04:50:03;;;;;;;;;24.00;24.00;;;;;22.61;50.77;100463.25;6249131;22;45323;-86
2023/06/14 04:52:29;;;;;;;;;31.00;28.67;;;;;22.64;50.53;100462.22;6223922;22;45294;-85
2023/06/14 04:54:55;;;;;;;;;23.67;23.67;;;;;22.77;50.50;100463.50;6221707;22;47052;-85
2023/06/14 04:57:22;;;;;;;;;27.00;27.00;;;;;22.86;50.93;100467.66;6224496;22;44878;-85
2023/06/14 05:03:18;;;;;;;;;24.00;23.33;;;;;23.00;50.72;100472.53;6223267;22;44816;-84
2023/06/14 05:05:44;;;;;;;;;27.00;26.00;;;;;23.03;50.28;100461.59;6224719;22;46997;-85
2023/06/14 05:08:09;;;;;;;;;28.67;26.67;;;;;23.13;50.19;100468.38;6225366;22;45218;-84
2023/06/14 05:10:36;;;;;;;;;28.67;28.67;;;;;23.25;50.39;100472.38;6227360;22;45231;-86
2023/06/14 05:13:01;;;;;;;;;28.33;26.33;;;;;23.26;50.08;100469.59;6226714;22;45462;-86
2023/06/14 05:15:28;;;;;;;;;28.00;27.00;;;;;23.13;50.51;100443.97;6226547;22;46267;-86
2023/06/14 05:17:55;;;;;;;;;27.67;26.00;;;;;23.24;49.90;100433.53;6224780;22;45353;-86
2023/06/14 05:20:27;;;;;;;;;20.33;20.33;;;;;23.34;49.92;100428.59;6223680;22;45222;-85
2023/06/14 05:22:53;;;;;;;;;26.67;26.33;;;;;23.56;49.50;100463.81;6226287;22;45884;-86
2023/06/14 05:28:41;;;;;;;;;30.00;28.00;;;;;23.84;49.51;100478.91;6226062;22;45363;-85
2023/06/14 05:31:06;;;;;;;;;27.67;27.67;;;;;23.67;49.19;100423.50;6223522;22;45287;-84
2023/06/14 05:33:31;;;;;;;;;32.00;28.33;;;;;24.03;49.28;100476.22;6225590;22;45404;-84
2023/06/14 05:35:57;;;;;;;;;29.00;24.67;;;;;23.90;49.10;100441.47;6226123;22;46620;-85
2023/06/14 05:38:22;;;;;;;;;27.33;27.00;;;;;24.04;48.75;100457.13;6224730;22;45448;-84
2023/06/14 05:40:48;;;;;;;;;26.33;25.00;;;;;24.07;49.06;100459.69;6252356;22;45385;-85
2023/06/14 05:43:13;;;;;;;;;30.00;28.67;;;;;24.27;48.68;100485.06;6224663;22;45535;-85
2023/06/14 05:45:41;;;;;;;;;27.67;27.33;;;;;24.15;49.04;100457.50;6223843;22;46738;-85
2023/06/14 05:48:07;;;;;;;;;31.00;29.67;;;;;24.39;48.42;100492.63;6225398;22;45352;-86
2023/06/14 05:50:33;;;;;;;;;28.33;28.00;;;;;24.48;48.26;100500.38;6223715;22;45293;-85
2023/06/14 05:53:00;;;;;;;;;26.00;26.00;;;;;24.63;48.21;100479.75;6223630;22;45296;-86
2023/06/14 05:55:26;;;;;;;;;22.33;22.33;;;;;24.66;47.92;100484.13;6226620;22;45516;-86
2023/06/14 05:57:51;;;;;;;;;28.33;25.67;;;;;24.70;48.00;100480.31;6223954;22;45340;-86
2023/06/14 06:00:17;;;;;;;;;29.00;27.67;;;;;24.78;47.65;100483.53;6227276;22;45297;-85
2023/06/14 06:02:43;;;;;;;;;28.00;28.00;;;;;24.75;47.86;100470.09;6224895;22;45377;-85
2023/06/14 06:05:10;;;;;;;;;27.67;26.67;;;;;24.77;48.01;100454.59;6221905;22;46798;-84
2023/06/14 06:07:37;;;;;;;;;31.00;28.00;;;;;24.80;47.42;100453.53;6249309;22;45359;-84
2023/06/14 06:10:20;;;;;;;;;28.33;26.67;;;;;25.12;47.37;100490.03;6225104;22;45240;-85
2023/06/14 06:12:48;;;;;;;;;33.33;28.33;;;;;25.03;47.47;100485.06;6226867;22;45236;-85
2023/06/14 06:15:14;;;;;;;;;28.00;28.00;;;;;25.20;47.36;100500.53;6222705;22;46794;-84
2023/06/14 06:17:40;;;;;;;;;30.33;28.00;;;;;25.07;47.68;100471.22;6249151;22;45370;-84
2023/06/14 06:20:08;;;;;;;;;30.00;29.33;;;;;25.30;47.22;100475.50;6225885;22;45768;-85
2023/06/14 06:22:34;;;;;;;;;26.00;25.67;;;;;25.54;46.79;100488.81;6223490;22;45367;-84
2023/06/14 06:28:21;;;;;;;;;28.33;27.00;;;;;25.87;45.88;100507.06;6227409;22;45183;-84
2023/06/14 06:30:47;;;;;;;;;34.67;30.67;;;;;25.97;45.55;100500.19;6226745;22;44784;-84
2023/06/14 06:33:23;;;;;;;;;29.00;27.33;;;;;26.13;44.77;100506.56;6224924;22;46052;-84
2023/06/14 06:35:49;;;;;;;;;29.67;27.67;;;;;26.04;45.20;100488.00;6225303;22;46649;-83
2023/06/14 06:38:14;;;;;;;;;31.00;29.67;;;;;26.25;44.68;100506.84;6253121;22;45446;-84
2023/06/14 06:40:40;;;;;;;;;25.67;25.33;;;;;26.31;44.68;100512.84;6230185;22;45389;-84
2023/06/14 06:43:08;;;;;;;;;29.00;29.00;;;;;26.42;44.50;100522.28;6229282;22;44826;-84
2023/06/14 06:45:34;;;;;;;;;27.67;27.67;;;;;26.33;43.90;100501.88;6227326;22;46764;-84
2023/06/14 06:48:00;;;;;;;;;28.00;28.00;;;;;26.33;43.76;100499.13;6228687;22;45282;-84
2023/06/14 06:53:53;;;;;;;;;29.00;27.00;;;;;26.62;43.11;100515.75;6228850;22;45291;-84
2023/06/14 06:56:20;;;;;;;;;28.00;27.00;;;;;26.64;43.10;100520.16;6227346;22;48029;-84
2023/06/14 06:58:49;;;;;;;;;28.67;26.33;;;;;26.54;42.57;100506.13;6251276;22;44737;-85
2023/06/14 07:01:15;;;;;;;;;27.33;26.33;;;;;26.49;42.28;100491.84;6224926;22;45137;-85
2023/06/14 07:03:50;;;;;;;;;25.33;24.00;;;;;26.66;41.54;100500.97;6200476;22;45348;-86
2023/06/14 07:06:18;;;;;;;;;25.00;25.00;;;;;26.79;41.67;100518.41;6230363;22;46631;-85
2023/06/14 07:08:44;;;;;;;;;25.33;23.67;;;;;26.70;40.98;100491.63;6225101;22;44977;-84
2023/06/14 07:18:24;;;;;;;;;23.33;21.67;;;;;27.04;39.64;100506.06;6199999;22;45295;-85
2023/06/14 08:00:33;;;;;;;;;20.33;20.33;;;;;28.49;35.55;100561.94;6233325;22;46657;-85
2023/06/14 08:06:45;;;;;;;;;22.00;22.00;;;;;28.42;34.44;100533.22;6199000;22;45317;-85
2023/06/14 08:28:18;;;;;;;;;15.00;15.00;;;;;29.02;32.58;100550.38;6167725;23;45784;-84
2023/06/14 08:31:16;;;;;;;;;18.67;18.67;;;;;29.00;32.68;100555.94;6104816;23;45349;-84
2023/06/14 08:52:53;;;;;;;;;20.00;17.67;;;;;29.11;31.53;100558.88;6227042;22;46099;-84
2023/06/14 09:56:15;;;;;;;;;;;;;;;;;;;;;
2023/06/14 10:06:42;;;;;;;;;15.50;15.50;;;;;29.44;26.75;100586.84;5965018;23;45354;-86
2023/06/14 10:09:41;;;;;;;;;17.00;15.33;;;;;29.59;27.66;100610.50;5908683;24;45251;-85
2023/06/14 10:12:44;;;;;;;;;16.00;16.00;;;;;29.66;25.80;100605.47;5851963;24;45379;-84
2023/06/14 10:19:14;;;;;;;;;14.67;14.67;;;;;29.58;26.59;100605.97;5880966;23;45448;-87
2023/06/14 10:22:37;;;;;;;;;14.67;14.67;;;;;29.62;26.11;100599.31;6048459;23;45370;-85
2023/06/14 11:17:29;;;;;;;;;20.50;20.50;;;;;29.26;25.78;100558.84;5986087;23;44733;-84
2023/06/14 11:20:42;;;;;;;;;17.00;17.00;;;;;29.60;26.06;100581.22;5968679;23;44815;-84
2023/06/14 11:35:40;;;;;;;;;17.33;17.33;;;;;29.78;25.35;100538.88;6168299;23;45491;-85
2023/06/14 11:38:15;;;;;;;;;15.33;15.33;;;;;29.67;25.58;100556.03;6168268;23;45242;-84
2023/06/14 11:41:13;;;;;;;;;15.00;14.67;;;;;29.72;25.81;100580.41;6165384;23;45424;-83
2023/06/14 11:54:12;;;;;;;;;16.33;16.00;;;;;29.78;25.33;100577.25;6111947;23;44885;-84
2023/06/14 12:36:35;;;;;;;;;18.33;17.67;;;;;29.93;26.59;100545.13;6220055;22;46991;-84
2023/06/14 12:42:27;;;;;;;;;16.67;16.67;;;;;30.24;27.05;100557.56;6146867;23;45363;-83
2023/06/14 12:45:20;;;;;;;;;15.67;15.67;;;;;30.10;26.87;100525.63;6143363;23;47083;-84
2023/06/14 12:48:45;;;;;;;;;18.00;17.67;;;;;30.39;26.58;100554.75;6138993;23;45847;-83
2023/06/14 12:51:53;;;;;;;;;18.00;18.00;;;;;30.48;26.89;100560.44;6110164;23;45520;-85
2023/06/14 12:55:34;;;;;;;;;22.33;19.33;;;;;30.59;25.88;100567.03;6140264;23;45361;-84
2023/06/14 13:02:10;;;;;;;;;19.67;19.00;;;;;30.81;26.33;100560.84;6017678;23;45382;-83
2023/06/14 13:09:17;;;;;;;;;21.00;19.67;;;;;30.65;26.67;100558.34;5843598;24;45408;-84
2023/06/14 13:30:11;;;;;;;;;16.33;16.33;;;;;30.27;26.07;100559.19;5772384;24;45443;-85
2023/06/14 13:33:37;;;;;;;;;18.33;17.00;;;;;30.28;26.14;100558.22;5803391;24;45378;-85
2023/06/14 13:36:39;;;;;;;;;17.67;17.67;;;;;30.39;25.77;100560.22;5804642;24;44880;-84
2023/06/14 13:40:02;;;;;;;;;17.67;17.67;;;;;30.48;25.27;100538.50;5813430;24;47021;-84
2023/06/14 13:47:02;;;;;;;;;18.00;16.33;;;;;33.54;22.82;100559.50;5952782;23;45417;-85
2023/06/14 15:43:56;;;;;;;;;15.00;13.67;;;;;53.39;9.40;100525.28;6167818;22;45443;-84
2023/06/14 16:36:01;;;;;;;;;;;;;;;;;;;;;
2023/06/14 16:39:09;;;;;;;;;14.67;14.67;;;;;50.38;10.36;100520.69;6226980;22;65400;-83
2023/06/14 16:46:07;;;;;;;;;21.33;19.33;;;;;46.48;11.94;100488.56;6063423;23;45366;-84
2023/06/14 17:04:16;;;;;;;;;;;;;;;;;;;;;
2023/06/14 17:11:07;;;;;;;;;;;;;;;;;;;;;
2023/06/14 17:27:31;;;;;;;;;17.33;17.33;;;;;41.89;14.67;100531.56;6075190;23;45356;-85
2023/06/14 17:30:37;;;;;;;;;15.00;15.00;;;;;40.55;15.12;100550.25;6099692;22;45469;-85
2023/06/14 17:33:32;;;;;;;;;17.33;16.33;;;;;39.04;15.90;100543.19;6198413;22;45351;-84
2023/06/14 17:39:41;;;;;;;;;19.00;17.33;;;;;36.35;17.80;100536.63;6209159;22;45413;-85
2023/06/14 17:50:12;;;;;;;;;19.00;17.67;;;;;34.42;19.44;100567.47;6227147;22;45398;-83
2023/06/14 17:53:21;;;;;;;;;14.00;14.00;;;;;33.99;19.93;100576.72;6131444;23;44835;-85
2023/06/14 17:55:52;;;;;;;;;18.67;18.33;;;;;33.73;19.91;100572.59;6132343;23;44882;-84
2023/06/14 17:58:45;;;;;;;;;18.33;17.33;;;;;33.55;20.71;100578.69;6158007;23;45488;-83
2023/06/14 18:06:22;;;;;;;;;18.33;18.33;;;;;33.08;20.46;100581.66;6182293;22;45526;-84
2023/06/14 18:08:59;;;;;;;;;18.00;18.00;;;;;32.86;21.12;100577.03;6138230;23;45455;-83
2023/06/14 18:15:13;;;;;;;;;17.00;17.00;;;;;32.36;21.13;100557.22;6159737;23;45447;-83
2023/06/14 18:18:00;;;;;;;;;18.00;18.00;;;;;32.23;22.36;100584.84;6162915;23;45385;-84
2023/06/14 18:23:51;;;;;;;;;12.67;12.67;;;;;31.96;21.96;100585.13;6152353;23;45592;-84
2023/06/14 18:36:10;;;;;;;;;16.67;16.67;;;;;31.29;23.15;100570.06;6074696;23;44887;-84
2023/06/14 18:39:09;;;;;;;;;19.33;19.33;;;;;31.27;23.13;100577.53;6071114;23;46623;-83
2023/06/14 18:41:38;;;;;;;;;17.33;17.00;;;;;31.20;23.75;100605.59;6071512;23;45480;-83
2023/06/14 18:46:57;;;;;;;;;15.67;15.67;;;;;30.82;23.56;100568.06;6063826;23;45783;-83
2023/06/14 18:49:52;;;;;;;;;;;;;;;;;;;;;
2023/06/14 18:52:25;;;;;;;;;15.67;15.67;;;;;30.87;23.59;100590.59;6117585;23;73092;-83
2023/06/14 18:55:01;;;;;;;;;17.33;17.33;;;;;30.77;23.29;100584.00;6130519;23;45274;-83
2023/06/14 18:57:35;;;;;;;;;14.67;14.67;;;;;30.60;23.60;100566.00;6104819;23;45282;-83
2023/06/14 19:00:05;;;;;;;;;16.67;15.67;;;;;30.66;23.50;100590.28;6104287;23;47681;-84
2023/06/14 19:02:31;;;;;;;;;16.33;16.00;;;;;30.52;24.11;100599.50;6129267;23;45738;-84
2023/06/14 19:08:41;;;;;;;;;16.00;16.00;;;;;30.14;24.65;100572.03;6249191;22;45341;-84
2023/06/14 19:11:10;;;;;;;;;20.33;17.67;;;;;30.25;24.77;100596.84;6226444;22;47231;-84
2023/06/14 19:13:49;;;;;;;;;18.33;16.67;;;;;30.01;24.43;100566.53;6253898;22;45346;-83
2023/06/14 19:16:26;;;;;;;;;16.00;14.33;;;;;29.95;24.55;100578.81;6253397;22;45274;-83
2023/06/14 19:19:39;;;;;;;;;16.00;16.00;;;;;29.88;25.33;100566.53;6226506;22;45999;-83
2023/06/14 19:22:28;;;;;;;;;19.00;18.67;;;;;30.00;25.01;100615.03;6185219;22;48071;-83
2023/06/14 19:25:02;;;;;;;;;18.67;17.67;;;;;29.78;25.33;100587.34;6252161;22;44777;-83
2023/06/14 19:27:45;;;;;;;;;22.67;20.33;;;;;29.75;26.09;100593.03;6226480;22;45330;-83
2023/06/14 19:30:13;;;;;;;;;19.67;17.67;;;;;29.69;25.53;100606.16;6227026;22;44881;-84
2023/06/14 19:32:42;;;;;;;;;22.67;18.67;;;;;29.55;25.42;100592.50;6218028;22;46619;-84
2023/06/14 19:35:12;;;;;;;;;16.67;16.33;;;;;29.46;25.90;100587.63;6227484;22;45653;-84
2023/06/14 19:37:57;;;;;;;;;20.00;20.00;;;;;29.41;25.79;100606.22;6227104;22;45365;-84
2023/06/14 19:40:24;;;;;;;;;17.00;17.00;;;;;29.42;26.74;100608.00;6134981;23;45501;-84
2023/06/14 19:43:47;;;;;;;;;19.33;19.33;;;;;29.49;26.31;100621.19;6159083;23;46282;-84
2023/06/14 19:46:16;;;;;;;;;14.33;14.33;;;;;29.29;26.05;100624.38;6156542;23;45737;-84
2023/06/14 19:48:52;;;;;;;;;21.33;19.33;;;;;29.15;26.27;100597.00;6158853;23;44853;-84
2023/06/14 19:54:48;;;;;;;;;20.33;20.33;;;;;29.05;26.79;100621.38;6159633;23;45461;-84
2023/06/14 20:00:44;;;;;;;;;18.67;18.33;;;;;28.85;26.59;100615.31;6158148;23;45391;-82
2023/06/14 20:03:12;;;;;;;;;20.33;17.33;;;;;28.68;27.32;100618.25;6156716;23;45269;-84
2023/06/14 20:05:43;;;;;;;;;19.00;19.00;;;;;28.75;26.69;100630.56;6155828;23;45479;-84
2023/06/14 20:09:16;;;;;;;;;;;;;;;;;;;;;
2023/06/14 20:11:52;;;;;;;;;21.67;20.67;;;;;28.46;27.39;100611.38;6124635;23;68800;-83
2023/06/14 20:14:18;;;;;;;;;20.00;19.00;;;;;28.46;27.46;100619.59;6126439;23;45503;-82
2023/06/14 20:17:19;;;;;;;;;20.00;20.00;;;;;28.67;28.04;100658.41;6115855;22;46710;-83
2023/06/14 20:19:48;;;;;;;;;23.33;21.33;;;;;28.53;27.59;100659.28;6221451;22;45354;-83
2023/06/14 20:22:24;;;;;;;;;20.00;20.00;;;;;28.47;27.64;100661.50;6193457;22;44660;-84
2023/06/14 20:24:55;;;;;;;;;21.00;21.00;;;;;28.45;28.09;100661.59;6192539;22;45481;-84
2023/06/14 20:28:01;;;;;;;;;21.33;21.33;;;;;28.45;27.97;100669.78;6190344;22;47230;-84
2023/06/14 20:30:32;;;;;;;;;21.67;21.33;;;;;28.20;28.49;100647.66;6219699;22;44820;-84
2023/06/14 20:43:10;;;;;;;;;25.00;24.00;;;;;28.08;29.92;100682.13;6220784;22;45624;-84
2023/06/14 21:26:43;;;;;;;;;23.33;22.67;;;;;27.23;31.24;100683.31;6032945;23;45493;-84
2023/06/14 21:30:03;;;;;;;;;26.00;23.67;;;;;27.38;31.41;100707.06;5204864;22;22232453;-84
2023/06/14 21:40:00;;;;;;;;;23.67;23.00;;;;;27.29;31.64;100716.69;6250971;22;45378;-84
2023/06/14 21:46:42;;;;;;;;;25.00;24.33;;;;;27.21;31.77;100701.63;6253089;22;45275;-85
2023/06/14 21:56:35;;;;;;;;;27.67;26.67;;;;;27.02;32.36;100690.88;6253465;22;45298;-84
2023/06/14 21:59:32;;;;;;;;;;;;;;;;;;;;;
2023/06/14 22:06:12;;;;;;;;;30.00;29.33;;;;;27.06;33.20;100717.03;6253280;22;45425;-83
2023/06/14 22:19:00;;;;;;;;;29.00;28.00;;;;;26.83;33.81;100732.81;6097725;23;45428;-83
2023/06/14 22:22:07;;;;;;;;;;;;;;;;;;;;;
2023/06/14 22:28:19;;;;;;;;;27.67;27.67;;;;;26.33;33.98;100719.97;6166352;22;45549;-83
2023/06/14 22:41:19;;;;;;;;;28.00;26.67;;;;;26.08;35.67;100753.97;6250026;22;45323;-84
2023/06/14 22:47:24;;;;;;;;;26.00;26.00;;;;;25.91;35.79;100762.09;6251580;22;45338;-83
2023/06/14 22:50:04;;;;;;;;;29.67;26.00;;;;;25.95;35.94;100760.97;6211011;22;46559;-83
2023/06/14 22:56:04;;;;;;;;;27.67;27.67;;;;;25.69;36.25;100733.16;6218015;22;45029;-84
2023/06/14 22:58:46;;;;;;;;;27.00;25.67;;;;;25.67;36.08;100742.34;6217232;22;45281;-83
2023/06/14 23:01:32;;;;;;;;;29.67;29.00;;;;;25.87;36.31;100760.44;6217124;22;48001;-83
2023/06/14 23:20:28;;;;;;;;;31.67;30.00;;;;;25.49;37.27;100763.19;6186113;23;45776;-84
2023/06/14 23:26:32;;;;;;;;;29.00;29.00;;;;;25.37;37.81;100756.50;6216893;22;45688;-84
2023/06/14 23:38:47;;;;;;;;;32.00;31.00;;;;;25.04;38.34;100720.81;6096679;23;45484;-84
2023/06/14 23:41:40;;;;;;;;;32.33;31.00;;;;;25.31;39.05;100776.72;6098541;23;45344;-83
2023/06/14 23:47:41;;;;;;;;;29.33;29.00;;;;;24.97;38.85;100733.81;6097963;23;45510;-83
2023/06/14 23:56:41;;;;;;;;;;;;;;;;;;;;;
